Terminal Aerodrome Forecast
Issued by NWS

Home | Current Version | Previous Version | Text Only | Print | Product List | Glossary On
Versions: 1 2 3 4 5 6 7 8 9 10 11 12 13 14 15 16 17 18 19 20 21 22 23 24 25 26 27 28
000
FTUS43 KBIS 042333
TAFJMS
TAF
KJMS 042333Z 0500/0524 09005KT P6SM SCT050
     FM050900 08007KT 3SM BR BKN003
     FM051300 05008KT 6SM BR BKN008
     FM051600 08010KT P6SM BKN015
     FM051900 12012KT P6SM VCTS BKN025 OVC050CB=

USA.gov is the U.S. government's official web portal to all federal, state and local government web resources and services.